Time;durP1;ratioP1;P1;durP2;ratioP2;P2;SDS_P1;SDS_P2;PMS_P1;PMS_P2;Temp;Humidity;BMP_temperature;BMP_pressure;BME280_temperature;BME280_humidity;BME280_pressure;Samples;Min_cycle;Max_cycle;Signal;HPM_P1;HPM_P2
2021/09/25 00:00:41;;;;;;;;;;;19.70;68.80;;;;;;5022349;28;19949;-66
2021/09/25 00:03:07;;;;;;;;;;;19.70;68.70;;;;;;5024661;28;19917;-66
2021/09/25 00:05:33;;;;;;;;;;;19.70;68.90;;;;;;5015710;28;20051;-66
2021/09/25 00:07:58;;;;;;;;;;;19.70;68.80;;;;;;5026927;28;19974;-66
2021/09/25 00:10:24;;;;;;;;;;;19.70;68.80;;;;;;5017184;28;19921;-66
2021/09/25 00:12:49;;;;;;;;;;;19.70;68.70;;;;;;5025027;28;20008;-66
2021/09/25 00:15:15;;;;;;;;;;;19.70;68.60;;;;;;5022868;28;19928;-65
2021/09/25 00:17:40;;;;;;;;;;;19.70;68.90;;;;;;5019687;28;19961;-66
2021/09/25 00:20:06;;;;;;;;;;;19.70;68.80;;;;;;5021820;28;19925;-66
2021/09/25 00:22:31;;;;;;;;;;;19.70;68.80;;;;;;5020312;28;20569;-65
2021/09/25 00:24:57;;;;;;;;;;;19.70;68.60;;;;;;5022201;28;19923;-61
2021/09/25 00:27:24;;;;;;;;;;;19.70;68.70;;;;;;5029834;28;20783;-66
2021/09/25 00:29:49;;;;;;;;;;;19.70;68.70;;;;;;5024271;28;19964;-66
2021/09/25 00:32:15;;;;;;;;;;;19.70;68.70;;;;;;5023941;28;19955;-66
2021/09/25 00:34:41;;;;;;;;;;;19.70;68.80;;;;;;5019374;28;19952;-66
2021/09/25 00:37:07;;;;;;;;;;;19.70;68.80;;;;;;5032098;28;20346;-66
2021/09/25 00:39:32;;;;;;;;;;;19.70;68.80;;;;;;5021393;28;20008;-65
2021/09/25 00:41:58;;;;;;;;;;;19.70;68.60;;;;;;5024111;28;19936;-66
2021/09/25 00:44:23;;;;;;;;;;;19.70;68.70;;;;;;5020883;28;19917;-65
2021/09/25 00:46:49;;;;;;;;;;;19.70;68.90;;;;;;5024804;28;19921;-66
2021/09/25 00:49:18;;;;;;;;;;;19.70;68.90;;;;;;5021323;28;19933;-66
2021/09/25 00:51:43;;;;;;;;;;;19.70;68.70;;;;;;5024101;28;20009;-65
2021/09/25 00:54:09;;;;;;;;;;;19.70;68.60;;;;;;5021720;28;19926;-66
2021/09/25 00:56:34;;;;;;;;;;;19.70;68.80;;;;;;5023590;28;19917;-60
2021/09/25 00:59:00;;;;;;;;;;;19.70;68.80;;;;;;5019456;28;20388;-66
2021/09/25 01:01:25;;;;;;;;;;;19.70;68.60;;;;;;5022196;28;19971;-62
2021/09/25 01:03:50;;;;;;;;;;;19.70;68.70;;;;;;5020834;28;19924;-66
2021/09/25 01:06:16;;;;;;;;;;;19.70;68.70;;;;;;5024089;28;19918;-65
2021/09/25 01:08:41;;;;;;;;;;;19.70;68.60;;;;;;5021050;28;20360;-61
2021/09/25 01:11:07;;;;;;;;;;;19.80;68.60;;;;;;5024330;28;19944;-66
2021/09/25 01:13:32;;;;;;;;;;;19.70;68.60;;;;;;5020019;28;19955;-66
2021/09/25 01:15:58;;;;;;;;;;;19.70;68.80;;;;;;5023739;28;19917;-62
2021/09/25 01:18:23;;;;;;;;;;;19.70;68.70;;;;;;5022591;28;20299;-65
2021/09/25 01:20:49;;;;;;;;;;;19.70;68.50;;;;;;5024958;28;19917;-66
2021/09/25 01:23:14;;;;;;;;;;;19.80;68.40;;;;;;5024973;28;19918;-66
2021/09/25 01:25:40;;;;;;;;;;;19.80;68.40;;;;;;5019413;28;20704;-66
2021/09/25 01:28:05;;;;;;;;;;;19.70;68.50;;;;;;5025123;28;19947;-62
2021/09/25 01:30:31;;;;;;;;;;;19.70;68.50;;;;;;5037146;28;19921;-66
2021/09/25 01:32:58;;;;;;;;;;;19.70;68.60;;;;;;5023425;28;19918;-66
2021/09/25 01:35:23;;;;;;;;;;;19.70;68.60;;;;;;5021314;28;19923;-66
2021/09/25 01:37:49;;;;;;;;;;;19.70;68.20;;;;;;5023797;28;19921;-66
2021/09/25 01:40:15;;;;;;;;;;;19.70;68.60;;;;;;5020262;28;19925;-67
2021/09/25 01:42:40;;;;;;;;;;;19.70;68.10;;;;;;5021977;28;20379;-66
2021/09/25 01:45:06;;;;;;;;;;;19.70;68.50;;;;;;5019703;28;19917;-65
2021/09/25 01:47:31;;;;;;;;;;;19.70;68.50;;;;;;5025941;28;20040;-66
2021/09/25 01:49:58;;;;;;;;;;;19.70;68.60;;;;;;5025699;28;19921;-66
2021/09/25 01:52:24;;;;;;;;;;;19.70;68.50;;;;;;5026830;28;19917;-66
2021/09/25 01:54:49;;;;;;;;;;;19.70;68.30;;;;;;5026296;28;20381;-66
2021/09/25 01:57:15;;;;;;;;;;;19.70;68.20;;;;;;5027629;28;19975;-66
2021/09/25 01:59:40;;;;;;;;;;;19.70;68.30;;;;;;5022460;28;19925;-66
2021/09/25 02:02:05;;;;;;;;;;;19.70;68.40;;;;;;5023862;28;19918;-66
2021/09/25 02:04:31;;;;;;;;;;;19.70;68.60;;;;;;5021508;28;19917;-66
2021/09/25 02:06:57;;;;;;;;;;;19.70;68.50;;;;;;5025172;28;19917;-66
2021/09/25 02:09:22;;;;;;;;;;;19.70;68.40;;;;;;5023387;28;19925;-66
2021/09/25 02:11:48;;;;;;;;;;;19.70;67.90;;;;;;5027049;28;19928;-65
2021/09/25 02:14:13;;;;;;;;;;;19.70;68.20;;;;;;5022572;28;20469;-66
2021/09/25 02:16:38;;;;;;;;;;;19.70;68.00;;;;;;5026685;28;19925;-66
2021/09/25 02:19:04;;;;;;;;;;;19.70;68.40;;;;;;5023683;28;19917;-66
2021/09/25 02:21:29;;;;;;;;;;;19.70;68.10;;;;;;5026890;28;19967;-63
2021/09/25 02:23:55;;;;;;;;;;;19.70;67.80;;;;;;5021877;28;19917;-64
2021/09/25 02:26:20;;;;;;;;;;;19.70;68.30;;;;;;5026498;28;19917;-65
2021/09/25 02:28:46;;;;;;;;;;;19.70;68.20;;;;;;5022204;28;19928;-67
2021/09/25 02:31:11;;;;;;;;;;;19.80;68.20;;;;;;5026838;28;19940;-64
2021/09/25 02:33:37;;;;;;;;;;;19.70;68.30;;;;;;5022482;28;19921;-66
2021/09/25 02:36:02;;;;;;;;;;;19.70;68.00;;;;;;5026305;28;19923;-67
2021/09/25 02:38:28;;;;;;;;;;;19.70;68.20;;;;;;5022962;28;20552;-66
2021/09/25 02:40:53;;;;;;;;;;;19.70;68.40;;;;;;5026109;28;19971;-67
2021/09/25 02:43:19;;;;;;;;;;;19.70;68.20;;;;;;5026782;28;19913;-65
2021/09/25 02:45:44;;;;;;;;;;;19.70;68.40;;;;;;5021326;28;20042;-63
2021/09/25 02:48:10;;;;;;;;;;;19.70;68.40;;;;;;5026088;28;19939;-66
2021/09/25 02:50:35;;;;;;;;;;;19.70;68.20;;;;;;5022019;28;19920;-66
2021/09/25 02:53:01;;;;;;;;;;;19.70;68.40;;;;;;5025617;28;20276;-65
2021/09/25 02:55:26;;;;;;;;;;;19.70;68.20;;;;;;5022695;28;19913;-65
2021/09/25 02:57:51;;;;;;;;;;;19.70;68.30;;;;;;5026005;28;19914;-64
2021/09/25 03:00:18;;;;;;;;;;;19.70;68.30;;;;;;5023395;28;20601;-66
2021/09/25 03:02:43;;;;;;;;;;;19.70;68.20;;;;;;5029273;28;20008;-66
2021/09/25 03:05:09;;;;;;;;;;;19.70;68.50;;;;;;5029792;28;19971;-66
2021/09/25 03:07:34;;;;;;;;;;;19.80;68.40;;;;;;5028168;28;19917;-67
2021/09/25 03:10:00;;;;;;;;;;;19.70;68.10;;;;;;5026595;28;19924;-66
2021/09/25 03:12:25;;;;;;;;;;;19.70;68.20;;;;;;5025409;28;19929;-67
2021/09/25 03:14:51;;;;;;;;;;;19.80;68.30;;;;;;5026136;28;20576;-67
2021/09/25 03:17:16;;;;;;;;;;;19.70;67.90;;;;;;5024990;28;19916;-67
2021/09/25 03:19:42;;;;;;;;;;;19.80;68.30;;;;;;5025109;28;19928;-66
2021/09/25 03:22:07;;;;;;;;;;;19.80;68.00;;;;;;5025300;28;19913;-67
2021/09/25 03:24:32;;;;;;;;;;;19.70;68.20;;;;;;5025691;28;19949;-67
2021/09/25 03:26:58;;;;;;;;;;;19.70;68.10;;;;;;5025532;28;19917;-67
2021/09/25 03:29:23;;;;;;;;;;;19.70;68.20;;;;;;5024957;28;20563;-66
2021/09/25 03:31:49;;;;;;;;;;;19.70;68.20;;;;;;5023768;28;19917;-66
2021/09/25 03:34:15;;;;;;;;;;;19.70;68.80;;;;;;5040401;28;20350;-66
2021/09/25 03:36:41;;;;;;;;;;;19.70;68.20;;;;;;5025006;28;20002;-66
2021/09/25 03:39:08;;;;;;;;;;;19.70;68.10;;;;;;5023963;28;19913;-66
2021/09/25 03:41:33;;;;;;;;;;;19.70;68.20;;;;;;5025304;28;20332;-66
2021/09/25 03:43:59;;;;;;;;;;;19.70;68.30;;;;;;5025720;28;19967;-66
2021/09/25 03:46:24;;;;;;;;;;;19.70;68.20;;;;;;5024236;28;19926;-66
2021/09/25 03:48:50;;;;;;;;;;;19.70;68.20;;;;;;5025101;28;20001;-66
2021/09/25 03:51:15;;;;;;;;;;;19.70;68.30;;;;;;5024586;28;19925;-65
2021/09/25 03:53:40;;;;;;;;;;;19.70;68.30;;;;;;5024587;28;19924;-66
2021/09/25 03:56:09;;;;;;;;;;;19.70;68.40;;;;;;5025207;28;19919;-65
2021/09/25 03:58:35;;;;;;;;;;;19.70;68.20;;;;;;5024352;28;20004;-64
2021/09/25 04:01:00;;;;;;;;;;;19.80;68.40;;;;;;5024092;28;20431;-65
2021/09/25 04:03:26;;;;;;;;;;;19.70;68.30;;;;;;5024841;28;19920;-66
2021/09/25 04:05:51;;;;;;;;;;;19.80;68.20;;;;;;5024893;28;20256;-66
2021/09/25 04:08:17;;;;;;;;;;;19.70;68.30;;;;;;5024190;28;19917;-66
2021/09/25 04:10:42;;;;;;;;;;;19.70;68.40;;;;;;5024517;28;19923;-66
2021/09/25 04:13:07;;;;;;;;;;;19.70;68.20;;;;;;5023024;28;19924;-65
2021/09/25 04:15:33;;;;;;;;;;;19.70;68.40;;;;;;5024871;28;19917;-66
2021/09/25 04:17:58;;;;;;;;;;;19.70;68.30;;;;;;5024414;28;19921;-66
2021/09/25 04:20:24;;;;;;;;;;;19.70;68.40;;;;;;5021623;28;19952;-65
2021/09/25 04:22:49;;;;;;;;;;;19.70;68.40;;;;;;5022461;28;19917;-65
2021/09/25 04:25:15;;;;;;;;;;;19.80;68.20;;;;;;5026456;28;19959;-65
2021/09/25 04:27:40;;;;;;;;;;;19.70;68.00;;;;;;5024106;28;19925;-66
2021/09/25 04:30:06;;;;;;;;;;;19.70;68.20;;;;;;5021286;28;19921;-65
2021/09/25 04:32:31;;;;;;;;;;;19.70;68.40;;;;;;5022371;28;19968;-65
2021/09/25 04:34:57;;;;;;;;;;;19.70;68.30;;;;;;5022153;28;19920;-65
2021/09/25 04:37:22;;;;;;;;;;;19.70;68.20;;;;;;5024001;28;19924;-65
2021/09/25 04:39:48;;;;;;;;;;;19.70;68.20;;;;;;5022345;28;20352;-64
2021/09/25 04:42:13;;;;;;;;;;;19.70;68.90;;;;;;5023629;28;19925;-65
2021/09/25 04:44:39;;;;;;;;;;;19.70;68.30;;;;;;5021374;28;19931;-65
2021/09/25 04:47:04;;;;;;;;;;;19.80;68.20;;;;;;5023387;28;20407;-65
2021/09/25 04:49:30;;;;;;;;;;;19.70;68.90;;;;;;5022846;28;19917;-64
2021/09/25 04:51:55;;;;;;;;;;;19.70;68.40;;;;;;5024177;28;19913;-65
2021/09/25 04:54:20;;;;;;;;;;;19.70;68.20;;;;;;5022621;28;19959;-65
2021/09/25 04:56:46;;;;;;;;;;;19.70;68.30;;;;;;5023148;28;20307;-65
2021/09/25 04:59:11;;;;;;;;;;;19.70;68.20;;;;;;5022242;28;19925;-65
2021/09/25 05:01:37;;;;;;;;;;;19.70;68.20;;;;;;5023580;28;19913;-65
2021/09/25 05:04:04;;;;;;;;;;;19.80;68.20;;;;;;5020765;28;19963;-65
2021/09/25 05:06:29;;;;;;;;;;;19.70;68.10;;;;;;5016234;28;20402;-65
2021/09/25 05:08:55;;;;;;;;;;;19.70;68.20;;;;;;5020444;28;19917;-65
2021/09/25 05:11:20;;;;;;;;;;;19.80;68.20;;;;;;5023352;28;19940;-65
2021/09/25 05:13:46;;;;;;;;;;;19.80;68.20;;;;;;5022122;28;19936;-65
2021/09/25 05:16:11;;;;;;;;;;;19.80;68.20;;;;;;5022805;28;19951;-65
2021/09/25 05:18:37;;;;;;;;;;;19.70;68.20;;;;;;5020402;28;19917;-65
2021/09/25 05:21:03;;;;;;;;;;;19.70;68.10;;;;;;5023504;28;20418;-65
2021/09/25 05:23:28;;;;;;;;;;;19.70;68.00;;;;;;5022368;28;19940;-65
2021/09/25 05:25:53;;;;;;;;;;;19.80;68.00;;;;;;5023187;28;19920;-63
2021/09/25 05:28:19;;;;;;;;;;;19.70;68.00;;;;;;5022665;28;20425;-65
2021/09/25 05:30:44;;;;;;;;;;;19.70;68.00;;;;;;5021251;28;19948;-65
2021/09/25 05:33:10;;;;;;;;;;;19.70;68.10;;;;;;5023481;28;19917;-65
2021/09/25 05:35:35;;;;;;;;;;;19.70;68.00;;;;;;5019497;28;19971;-65
2021/09/25 05:38:01;;;;;;;;;;;19.70;68.00;;;;;;5023552;28;19913;-65
2021/09/25 05:40:26;;;;;;;;;;;19.80;68.00;;;;;;5020126;28;19913;-65
2021/09/25 05:42:52;;;;;;;;;;;19.70;67.80;;;;;;5023806;28;19963;-65
2021/09/25 05:45:17;;;;;;;;;;;19.70;68.00;;;;;;5020165;28;20011;-60
2021/09/25 05:47:43;;;;;;;;;;;19.70;67.90;;;;;;5023978;28;20326;-66
2021/09/25 05:50:08;;;;;;;;;;;19.70;68.00;;;;;;5022636;28;19917;-65
2021/09/25 05:52:34;;;;;;;;;;;19.70;67.90;;;;;;5014000;28;19967;-65
2021/09/25 05:54:59;;;;;;;;;;;19.70;67.90;;;;;;5019282;28;20385;-63
2021/09/25 05:57:25;;;;;;;;;;;19.70;68.00;;;;;;5023270;28;19921;-63
2021/09/25 05:59:50;;;;;;;;;;;19.70;68.10;;;;;;5022422;28;20287;-66
2021/09/25 06:02:16;;;;;;;;;;;19.70;68.00;;;;;;5023682;28;19925;-63
2021/09/25 06:04:41;;;;;;;;;;;19.70;67.90;;;;;;5020043;28;19913;-65
2021/09/25 06:07:11;;;;;;;;;;;19.80;68.10;;;;;;5022571;28;20299;-66
2021/09/25 06:09:36;;;;;;;;;;;19.80;68.00;;;;;;5021075;28;19921;-65
2021/09/25 06:12:02;;;;;;;;;;;19.70;68.00;;;;;;5024910;28;19963;-65
2021/09/25 06:14:27;;;;;;;;;;;19.70;67.80;;;;;;5020991;28;20059;-66
2021/09/25 06:16:53;;;;;;;;;;;19.70;68.00;;;;;;5024336;28;19917;-66
2021/09/25 06:19:18;;;;;;;;;;;19.70;67.80;;;;;;5025486;28;19913;-65
2021/09/25 06:21:43;;;;;;;;;;;19.80;68.00;;;;;;5023660;28;19936;-65
2021/09/25 06:24:09;;;;;;;;;;;19.80;67.80;;;;;;5022368;28;19984;-65
2021/09/25 06:26:34;;;;;;;;;;;19.70;67.90;;;;;;5023246;28;19914;-64
2021/09/25 06:29:00;;;;;;;;;;;19.70;67.90;;;;;;5022540;28;19947;-66
2021/09/25 06:31:25;;;;;;;;;;;19.70;67.80;;;;;;5022570;28;19913;-65
2021/09/25 06:33:51;;;;;;;;;;;19.70;67.90;;;;;;5023289;28;20404;-64
2021/09/25 06:36:16;;;;;;;;;;;19.70;68.00;;;;;;5025457;28;19913;-65
2021/09/25 06:38:42;;;;;;;;;;;19.70;67.80;;;;;;5026501;28;19932;-65
2021/09/25 06:41:07;;;;;;;;;;;19.70;67.80;;;;;;5026075;28;19921;-65
2021/09/25 06:43:33;;;;;;;;;;;19.70;67.90;;;;;;5023608;28;20673;-65
2021/09/25 06:45:58;;;;;;;;;;;19.70;68.00;;;;;;5022117;28;19913;-66
2021/09/25 06:48:23;;;;;;;;;;;19.70;67.80;;;;;;5025703;28;19925;-65
2021/09/25 06:50:49;;;;;;;;;;;19.70;67.70;;;;;;5026417;28;19975;-65
2021/09/25 06:53:14;;;;;;;;;;;19.70;67.80;;;;;;5026151;28;19913;-63
2021/09/25 06:55:40;;;;;;;;;;;19.70;67.80;;;;;;5025900;28;19917;-65
2021/09/25 06:58:06;;;;;;;;;;;19.70;67.70;;;;;;5025854;28;19913;-65
2021/09/25 07:00:32;;;;;;;;;;;19.70;67.80;;;;;;5026106;28;20282;-66
2021/09/25 07:02:57;;;;;;;;;;;19.70;67.60;;;;;;5024387;28;20032;-65
2021/09/25 07:05:23;;;;;;;;;;;19.70;67.70;;;;;;5025109;28;19925;-66
2021/09/25 07:07:49;;;;;;;;;;;19.70;67.70;;;;;;5026676;28;20024;-64
2021/09/25 07:10:15;;;;;;;;;;;19.70;67.90;;;;;;5024718;28;19917;-64
2021/09/25 07:12:41;;;;;;;;;;;19.70;67.90;;;;;;5025808;28;19963;-65
2021/09/25 07:15:06;;;;;;;;;;;19.70;67.80;;;;;;5026272;28;19913;-64
2021/09/25 07:17:32;;;;;;;;;;;19.70;67.80;;;;;;5023801;28;20182;-66
2021/09/25 07:19:57;;;;;;;;;;;19.70;67.80;;;;;;5007359;28;19914;-63
2021/09/25 07:22:23;;;;;;;;;;;19.70;68.50;;;;;;5025917;28;19944;-66
2021/09/25 07:24:54;;;;;;;;;;;19.70;68.00;;;;;;5027926;28;19982;-64
2021/09/25 07:27:20;;;;;;;;;;;19.70;68.40;;;;;;5020432;28;20287;-65
2021/09/25 07:29:45;;;;;;;;;;;19.70;68.60;;;;;;5040899;28;19939;-65
2021/09/25 07:32:11;;;;;;;;;;;19.70;68.60;;;;;;5025448;28;19927;-64
2021/09/25 07:34:36;;;;;;;;;;;19.70;68.70;;;;;;5008022;28;19913;-66
2021/09/25 07:37:01;;;;;;;;;;;19.70;68.60;;;;;;5023569;28;19917;-65
2021/09/25 07:39:27;;;;;;;;;;;19.70;68.50;;;;;;5022936;28;20008;-64
2021/09/25 07:41:52;;;;;;;;;;;19.70;68.00;;;;;;5025814;28;20252;-64
2021/09/25 07:44:18;;;;;;;;;;;19.70;68.50;;;;;;5025501;28;19913;-65
2021/09/25 07:46:43;;;;;;;;;;;19.70;68.30;;;;;;5026021;28;19975;-64
2021/09/25 07:49:09;;;;;;;;;;;19.70;68.10;;;;;;5023637;28;20387;-65
2021/09/25 07:51:34;;;;;;;;;;;19.70;68.10;;;;;;5025557;28;19950;-65
2021/09/25 07:54:00;;;;;;;;;;;19.70;67.60;;;;;;5023549;28;19924;-66
2021/09/25 07:56:25;;;;;;;;;;;19.70;68.00;;;;;;5021756;28;19913;-65
2021/09/25 07:58:50;;;;;;;;;;;19.70;68.10;;;;;;5025414;28;19925;-64
2021/09/25 08:01:16;;;;;;;;;;;19.70;68.20;;;;;;5019944;28;19957;-66
2021/09/25 08:03:43;;;;;;;;;;;19.70;67.70;;;;;;5023878;28;19921;-65
2021/09/25 08:06:09;;;;;;;;;;;19.70;67.50;;;;;;5024494;28;19917;-64
2021/09/25 08:08:35;;;;;;;;;;;19.70;68.10;;;;;;5023164;28;19929;-66
2021/09/25 08:11:00;;;;;;;;;;;19.70;67.90;;;;;;5023074;28;20283;-67
2021/09/25 08:13:26;;;;;;;;;;;19.70;67.70;;;;;;5023256;28;19929;-65
2021/09/25 08:15:51;;;;;;;;;;;19.60;67.80;;;;;;5023439;28;20384;-67
2021/09/25 08:18:17;;;;;;;;;;;19.70;68.10;;;;;;5022893;28;19994;-66
2021/09/25 08:20:43;;;;;;;;;;;19.70;68.00;;;;;;5025675;28;19956;-66
2021/09/25 08:23:08;;;;;;;;;;;19.70;67.70;;;;;;5025033;28;19917;-65
2021/09/25 08:25:34;;;;;;;;;;;19.70;66.90;;;;;;5023101;28;19940;-67
2021/09/25 08:27:59;;;;;;;;;;;19.70;67.60;;;;;;5024562;28;19945;-67
2021/09/25 08:30:25;;;;;;;;;;;19.70;67.40;;;;;;5030765;28;19924;-65
2021/09/25 08:32:51;;;;;;;;;;;19.70;68.00;;;;;;5025916;28;19931;-67
2021/09/25 08:35:17;;;;;;;;;;;19.60;67.70;;;;;;5024466;28;19913;-66
2021/09/25 08:37:43;;;;;;;;;;;19.70;67.60;;;;;;5023490;28;19928;-67
2021/09/25 08:40:09;;;;;;;;;;;19.70;67.80;;;;;;5006538;28;20458;-66
2021/09/25 08:42:34;;;;;;;;;;;19.70;67.50;;;;;;5022683;28;19967;-65
2021/09/25 08:45:00;;;;;;;;;;;19.70;67.80;;;;;;5023632;28;19913;-66
2021/09/25 08:47:25;;;;;;;;;;;19.80;67.90;;;;;;5023217;28;19919;-67
2021/09/25 08:49:51;;;;;;;;;;;19.80;67.70;;;;;;5024744;28;19921;-67
2021/09/25 08:52:16;;;;;;;;;;;19.90;67.60;;;;;;5023767;28;21919;-67
2021/09/25 08:54:42;;;;;;;;;;;19.80;67.50;;;;;;5040134;28;19924;-67
2021/09/25 08:57:07;;;;;;;;;;;19.90;67.40;;;;;;5023031;28;19953;-66
2021/09/25 08:59:33;;;;;;;;;;;19.90;67.10;;;;;;5022957;28;19925;-66
2021/09/25 09:02:08;;;;;;;;;;;19.80;67.20;;;;;;5024669;28;19948;-66
2021/09/25 09:04:40;;;;;;;;;;;19.80;67.20;;;;;;5019047;28;19933;-66
2021/09/25 09:07:11;;;;;;;;;;;19.90;67.10;;;;;;5023173;28;19917;-66
2021/09/25 09:09:40;;;;;;;;;;;19.90;67.10;;;;;;5007913;28;19921;-68
2021/09/25 09:12:05;;;;;;;;;;;19.90;66.90;;;;;;5022898;28;19917;-67
2021/09/25 09:14:39;;;;;;;;;;;19.90;66.90;;;;;;5024158;28;19924;-65
2021/09/25 09:17:04;;;;;;;;;;;19.90;66.90;;;;;;5022596;28;19963;-66
2021/09/25 09:19:36;;;;;;;;;;;19.90;67.10;;;;;;5023256;28;19917;-66
2021/09/25 09:22:02;;;;;;;;;;;19.90;67.10;;;;;;5022413;28;20003;-66
2021/09/25 09:24:28;;;;;;;;;;;19.90;67.30;;;;;;5005905;28;19928;-66
2021/09/25 09:26:53;;;;;;;;;;;19.80;67.40;;;;;;5022593;28;19925;-67
2021/09/25 09:29:19;;;;;;;;;;;19.80;67.40;;;;;;5017505;28;20988;-66
2021/09/25 09:31:44;;;;;;;;;;;19.90;67.20;;;;;;5006627;28;19923;-67
2021/09/25 09:34:10;;;;;;;;;;;19.90;66.90;;;;;;5023977;28;19948;-67
2021/09/25 09:36:35;;;;;;;;;;;19.90;66.80;;;;;;5023102;28;19913;-68
2021/09/25 09:39:19;;;;;;;;;;;19.90;66.60;;;;;;5023678;28;19919;-68
2021/09/25 09:41:48;;;;;;;;;;;19.90;66.50;;;;;;5019749;28;19996;-66
2021/09/25 09:44:14;;;;;;;;;;;19.90;66.60;;;;;;5023669;28;19917;-66
2021/09/25 09:46:40;;;;;;;;;;;19.90;66.70;;;;;;5023341;28;20378;-66
2021/09/25 09:49:06;;;;;;;;;;;19.80;66.70;;;;;;5023568;28;19932;-66
2021/09/25 09:51:35;;;;;;;;;;;19.90;67.30;;;;;;5023396;28;19917;-67
2021/09/25 09:54:00;;;;;;;;;;;19.90;66.60;;;;;;5022628;28;20011;-67
2021/09/25 09:56:26;;;;;;;;;;;19.90;66.40;;;;;;5024244;28;19920;-66
2021/09/25 09:58:55;;;;;;;;;;;19.90;66.30;;;;;;5039116;28;19979;-67
2021/09/25 10:01:20;;;;;;;;;;;19.90;66.20;;;;;;5022389;28;20003;-67
2021/09/25 10:03:45;;;;;;;;;;;20.00;66.20;;;;;;5022260;28;20003;-67
2021/09/25 10:06:11;;;;;;;;;;;19.90;66.20;;;;;;5023242;28;19967;-67
2021/09/25 10:08:36;;;;;;;;;;;19.90;66.20;;;;;;5025413;28;20279;-67
2021/09/25 10:11:02;;;;;;;;;;;20.00;66.30;;;;;;5026104;28;19949;-64
2021/09/25 10:13:27;;;;;;;;;;;19.90;66.30;;;;;;5010182;28;19921;-64
2021/09/25 10:15:53;;;;;;;;;;;19.90;66.50;;;;;;5027428;28;19932;-64
2021/09/25 10:18:19;;;;;;;;;;;19.90;66.50;;;;;;5026061;28;20348;-65
2021/09/25 10:20:44;;;;;;;;;;;19.90;66.70;;;;;;5027416;28;19917;-66
2021/09/25 10:23:10;;;;;;;;;;;19.90;66.80;;;;;;5027496;28;19921;-66
2021/09/25 10:25:35;;;;;;;;;;;19.90;66.80;;;;;;5025983;28;19939;-66
2021/09/25 10:28:01;;;;;;;;;;;19.90;66.90;;;;;;5026000;28;19920;-66
2021/09/25 10:30:33;;;;;;;;;;;19.90;67.00;;;;;;5025721;28;19924;-67
2021/09/25 10:32:58;;;;;;;;;;;19.80;67.00;;;;;;5025723;28;19917;-65
2021/09/25 10:35:27;;;;;;;;;;;19.90;66.90;;;;;;5026972;28;20330;-65
2021/09/25 10:38:00;;;;;;;;;;;19.90;66.90;;;;;;5026787;28;19917;-65
2021/09/25 10:40:29;;;;;;;;;;;19.90;66.90;;;;;;5026866;28;20390;-64
2021/09/25 10:42:57;;;;;;;;;;;19.90;66.70;;;;;;5009070;28;19923;-67
2021/09/25 10:45:26;;;;;;;;;;;19.90;66.40;;;;;;5026227;28;19924;-65
2021/09/25 10:48:11;;;;;;;;;;;19.90;66.30;;;;;;5027057;28;19917;-67
2021/09/25 10:50:37;;;;;;;;;;;19.90;66.30;;;;;;5026458;28;19963;-67
2021/09/25 10:53:13;;;;;;;;;;;19.90;66.30;;;;;;5026537;28;19925;-66
2021/09/25 10:55:38;;;;;;;;;;;19.90;66.30;;;;;;5017531;28;19917;-64
2021/09/25 10:58:30;;;;;;;;;;;19.90;66.50;;;;;;5027780;28;20103;-66
2021/09/25 11:01:11;;;;;;;;;;;19.90;66.60;;;;;;5012920;28;20522;-66
2021/09/25 11:03:43;;;;;;;;;;;19.90;67.20;;;;;;5001797;28;19913;-66
2021/09/25 11:06:09;;;;;;;;;;;19.90;67.80;;;;;;5026886;28;19925;-66
2021/09/25 11:08:35;;;;;;;;;;;19.90;67.70;;;;;;5025411;28;19921;-67
2021/09/25 11:11:04;;;;;;;;;;;19.90;67.80;;;;;;5026454;28;20515;-67
2021/09/25 11:13:48;;;;;;;;;;;19.90;67.60;;;;;;5026770;28;19963;-66
2021/09/25 11:16:14;;;;;;;;;;;19.90;67.60;;;;;;5031015;28;19925;-67
2021/09/25 11:18:51;;;;;;;;;;;19.90;67.80;;;;;;5022238;28;20683;-66
2021/09/25 11:21:17;;;;;;;;;;;19.90;67.80;;;;;;5023996;28;20427;-67
2021/09/25 11:23:43;;;;;;;;;;;19.80;67.80;;;;;;5022812;28;19971;-67
2021/09/25 11:26:08;;;;;;;;;;;19.80;68.00;;;;;;5024811;28;19917;-67
2021/09/25 11:28:34;;;;;;;;;;;19.80;67.90;;;;;;5023038;28;19928;-67
2021/09/25 11:31:06;;;;;;;;;;;19.80;68.00;;;;;;5023792;28;20367;-67
2021/09/25 11:33:32;;;;;;;;;;;19.80;67.90;;;;;;5017581;28;20353;-66
2021/09/25 11:35:57;;;;;;;;;;;19.80;68.00;;;;;;5024253;28;19932;-67
2021/09/25 11:38:23;;;;;;;;;;;19.80;67.90;;;;;;5022910;28;19918;-67
2021/09/25 11:40:52;;;;;;;;;;;19.80;67.40;;;;;;5024056;28;19945;-67
2021/09/25 11:43:18;;;;;;;;;;;19.80;68.00;;;;;;5023991;28;19928;-66
2021/09/25 11:45:45;;;;;;;;;;;19.70;67.90;;;;;;5021915;28;19923;-67
2021/09/25 11:48:11;;;;;;;;;;;19.70;68.00;;;;;;5021892;28;20000;-66
2021/09/25 11:50:38;;;;;;;;;;;19.70;67.90;;;;;;5023742;28;20455;-67
2021/09/25 11:53:05;;;;;;;;;;;19.70;68.00;;;;;;5022327;28;19953;-66
2021/09/25 11:55:30;;;;;;;;;;;19.70;67.90;;;;;;5023036;28;20016;-66
2021/09/25 11:57:56;;;;;;;;;;;19.80;68.60;;;;;;5022249;28;20439;-67
2021/09/25 12:00:21;;;;;;;;;;;19.70;68.00;;;;;;5024076;28;20400;-66
2021/09/25 12:02:47;;;;;;;;;;;19.70;68.00;;;;;;5023648;28;19923;-67
2021/09/25 12:05:27;;;;;;;;;;;19.70;68.10;;;;;;5006070;28;19928;-64
2021/09/25 12:07:53;;;;;;;;;;;19.70;68.10;;;;;;5022927;28;19921;-65
2021/09/25 12:10:22;;;;;;;;;;;19.70;68.00;;;;;;5005399;28;19921;-67
2021/09/25 12:12:53;;;;;;;;;;;19.70;68.00;;;;;;5021529;28;19924;-65
2021/09/25 12:15:23;;;;;;;;;;;19.80;68.00;;;;;;5024374;28;19932;-68
2021/09/25 12:18:07;;;;;;;;;;;19.70;68.00;;;;;;5024193;28;19928;-67
2021/09/25 12:20:33;;;;;;;;;;;19.80;68.20;;;;;;5023448;28;19975;-67
2021/09/25 12:22:59;;;;;;;;;;;19.80;68.00;;;;;;5024136;28;19917;-68
2021/09/25 12:25:24;;;;;;;;;;;19.90;68.00;;;;;;5012582;28;19925;-66
2021/09/25 12:27:49;;;;;;;;;;;19.90;68.20;;;;;;5022226;28;19919;-67
2021/09/25 12:30:17;;;;;;;;;;;19.90;68.40;;;;;;5022146;28;19948;-67
2021/09/25 12:32:42;;;;;;;;;;;19.80;68.50;;;;;;5021150;28;19963;-67
2021/09/25 12:35:17;;;;;;;;;;;19.90;68.00;;;;;;5023506;28;19971;-66
2021/09/25 12:37:47;;;;;;;;;;;19.90;68.20;;;;;;5023365;28;19923;-68
2021/09/25 12:40:13;;;;;;;;;;;19.80;68.40;;;;;;5022739;28;19924;-68
2021/09/25 12:42:38;;;;;;;;;;;19.90;67.30;;;;;;5021795;28;20303;-65
2021/09/25 12:45:04;;;;;;;;;;;20.00;67.40;;;;;;5021789;28;19959;-63
2021/09/25 12:47:32;;;;;;;;;;;19.90;68.10;;;;;;5024344;28;19975;-66
2021/09/25 12:50:17;;;;;;;;;;;19.90;68.40;;;;;;5021437;28;19917;-65
2021/09/25 12:52:42;;;;;;;;;;;19.90;68.40;;;;;;5023664;28;19971;-67
2021/09/25 12:55:08;;;;;;;;;;;19.90;68.50;;;;;;5023029;28;19921;-67
2021/09/25 12:57:33;;;;;;;;;;;19.90;68.50;;;;;;5024118;28;20596;-66
2021/09/25 13:00:00;;;;;;;;;;;19.90;68.50;;;;;;5024327;28;20433;-66
2021/09/25 13:02:27;;;;;;;;;;;20.00;67.50;;;;;;5023031;28;20383;-66
2021/09/25 13:04:53;;;;;;;;;;;20.00;67.60;;;;;;5023868;28;19979;-66
2021/09/25 13:07:25;;;;;;;;;;;19.90;68.10;;;;;;5021767;28;19920;-64
2021/09/25 13:09:51;;;;;;;;;;;19.90;68.40;;;;;;5022441;28;19924;-67
2021/09/25 13:12:26;;;;;;;;;;;19.90;68.00;;;;;;5023060;28;19924;-67
2021/09/25 13:15:00;;;;;;;;;;;19.90;68.20;;;;;;5023548;28;19967;-66
2021/09/25 13:17:26;;;;;;;;;;;19.90;68.40;;;;;;5017653;28;19948;-66
2021/09/25 13:19:51;;;;;;;;;;;19.90;68.40;;;;;;5022988;28;19913;-68
2021/09/25 13:22:17;;;;;;;;;;;19.90;68.30;;;;;;5019134;28;19975;-66
2021/09/25 13:24:42;;;;;;;;;;;19.90;68.10;;;;;;5023476;28;19924;-66
2021/09/25 13:27:08;;;;;;;;;;;19.90;68.10;;;;;;5023420;28;20360;-67
2021/09/25 13:29:34;;;;;;;;;;;19.90;68.10;;;;;;5022830;28;20403;-67
2021/09/25 13:31:59;;;;;;;;;;;19.90;68.20;;;;;;5024054;28;19960;-66
2021/09/25 13:34:25;;;;;;;;;;;19.90;68.30;;;;;;5021339;28;20284;-66
2021/09/25 13:36:50;;;;;;;;;;;19.90;68.20;;;;;;5022487;28;19924;-66
2021/09/25 13:39:16;;;;;;;;;;;19.90;68.30;;;;;;5022119;28;20010;-66
2021/09/25 13:41:42;;;;;;;;;;;19.90;68.40;;;;;;5021708;28;20004;-66
2021/09/25 13:44:07;;;;;;;;;;;19.90;68.50;;;;;;5025204;28;19966;-67
2021/09/25 13:46:33;;;;;;;;;;;19.90;68.40;;;;;;5026426;28;19917;-67
2021/09/25 13:48:58;;;;;;;;;;;20.00;68.40;;;;;;5025973;28;19917;-67
2021/09/25 13:51:23;;;;;;;;;;;19.90;68.40;;;;;;5026277;28;19982;-66
2021/09/25 13:53:49;;;;;;;;;;;19.90;68.40;;;;;;5025002;28;19920;-66
2021/09/25 13:56:14;;;;;;;;;;;19.90;68.40;;;;;;5024956;28;20350;-65
2021/09/25 13:58:40;;;;;;;;;;;19.90;68.50;;;;;;5025364;28;19925;-66
2021/09/25 14:01:05;;;;;;;;;;;19.90;68.60;;;;;;5026391;28;19936;-68
2021/09/25 14:03:31;;;;;;;;;;;19.90;68.60;;;;;;5026491;28;19913;-65
2021/09/25 14:05:56;;;;;;;;;;;19.90;68.60;;;;;;5025608;28;19913;-65
2021/09/25 14:08:22;;;;;;;;;;;20.00;69.40;;;;;;5025823;28;19925;-68
2021/09/25 14:10:47;;;;;;;;;;;19.90;68.70;;;;;;5026635;28;20554;-66